createdAt,value
2023-03-17T00:07:21.437Z,2.5
2023-03-17T00:12:40.931Z,2.6
2023-03-17T00:18:15.032Z,2.5
2023-03-17T00:23:58.778Z,2.5
2023-03-17T00:29:15.700Z,2.4
2023-03-17T00:46:13.125Z,2.2
2023-03-17T00:51:27.512Z,2.3
2023-03-17T00:57:03.386Z,2.1
2023-03-17T01:02:52.967Z,2
2023-03-17T01:08:10.932Z,2.1
2023-03-17T01:19:30.140Z,2.2
2023-03-17T01:24:52.398Z,1.8
2023-03-17T01:36:05.917Z,2.2
2023-03-17T02:03:39.632Z,2.5
2023-03-17T02:14:41.576Z,2.5
2023-03-17T02:20:34.482Z,2
2023-03-17T02:37:04.405Z,1.6
2023-03-17T02:42:46.664Z,1.5
2023-03-17T02:48:13.918Z,1.5
2023-03-17T02:59:35.457Z,1.8
2023-03-17T03:05:02.432Z,1.9
2023-03-17T03:10:19.793Z,1.7
2023-03-17T03:16:05.133Z,1.5
2023-03-17T03:21:19.030Z,0.8
2023-03-17T03:27:04.533Z,1.1
2023-03-17T03:32:28.261Z,1.3
2023-03-17T03:38:11.249Z,1.4
2023-03-17T03:43:49.685Z,1.4
2023-03-17T03:49:07.108Z,1.3
2023-03-17T04:05:58.909Z,1.2
2023-03-17T04:16:55.394Z,1.3
2023-03-17T04:22:35.747Z,1.2
2023-03-17T04:28:07.485Z,1.3
2023-03-17T04:33:34.796Z,1.2
2023-03-17T04:45:03.055Z,1
2023-03-17T04:50:27.674Z,0.8
2023-03-17T05:01:27.552Z,1.2
2023-03-17T05:07:11.686Z,1.7
2023-03-17T05:12:21.682Z,1.6
2023-03-17T05:18:13.924Z,2
2023-03-17T05:29:15.188Z,1.3
2023-03-17T05:34:53.776Z,1.1
2023-03-17T05:40:30.684Z,0.6
2023-03-17T05:46:06.875Z,0.3
2023-03-17T05:51:15.327Z,0
2023-03-17T06:02:20.997Z,0.9
2023-03-17T06:08:10.797Z,0.8
2023-03-17T06:13:48.852Z,0.9
2023-03-17T06:19:01.679Z,1.2
2023-03-17T06:24:44.342Z,1.5
2023-03-17T06:30:10.905Z,1
2023-03-17T06:35:59.813Z,0.9
2023-03-17T06:41:30.799Z,0.9
2023-03-17T06:47:02.810Z,0.9
2023-03-17T06:52:33.049Z,1.3
2023-03-17T06:57:51.261Z,1.7
2023-03-17T07:03:38.947Z,2
2023-03-17T07:09:07.529Z,2.6
2023-03-17T07:14:44.828Z,3
2023-03-17T07:20:12.184Z,3.4
2023-03-17T07:25:37.528Z,3.8
2023-03-17T07:31:03.007Z,3.5
2023-03-17T07:36:41.064Z,4.2
2023-03-17T07:42:09.972Z,4.4
2023-03-17T07:47:46.728Z,4.7
2023-03-17T07:53:30.578Z,4.4
2023-03-17T07:59:11.554Z,4.7
2023-03-17T08:04:41.559Z,4.9
2023-03-17T08:10:15.324Z,5.3
2023-03-17T08:15:54.702Z,5.6
2023-03-17T08:21:31.291Z,5.6
2023-03-17T08:26:48.492Z,6.4
2023-03-17T08:32:16.825Z,6.1
2023-03-17T08:38:06.343Z,6.4
2023-03-17T08:43:33.325Z,6.9
2023-03-17T08:49:16.116Z,7.2
2023-03-17T08:54:39.651Z,6.8
2023-03-17T09:00:16.263Z,7.8
2023-03-17T09:06:02.538Z,8.1
2023-03-17T09:11:25.674Z,8.3
2023-03-17T09:17:12.632Z,7.7
2023-03-17T09:22:30.131Z,7.4
2023-03-17T09:28:03.254Z,7.2
2023-03-17T09:33:35.803Z,8
2023-03-17T09:39:09.387Z,8.7
2023-03-17T09:44:41.853Z,9
2023-03-17T09:50:39.685Z,9.3
2023-03-17T09:56:01.411Z,8.5
2023-03-17T10:01:47.349Z,9.7
2023-03-17T10:06:58.950Z,9.1
2023-03-17T10:12:49.167Z,9.6
2023-03-17T10:18:23.089Z,9.4
2023-03-17T10:24:04.110Z,9.8
2023-03-17T10:29:24.340Z,10.4
2023-03-17T10:34:54.300Z,10.1
2023-03-17T10:40:43.187Z,10.2
2023-03-17T10:46:17.383Z,11
2023-03-17T10:51:53.588Z,11.1
2023-03-17T10:57:35.421Z,10.8
2023-03-17T11:02:55.311Z,11.2
2023-03-17T11:08:32.193Z,12.1
2023-03-17T11:14:30.245Z,13
2023-03-17T11:19:58.761Z,12.2
2023-03-17T11:25:39.786Z,12.3
2023-03-17T11:31:16.425Z,12.5
2023-03-17T11:36:44.286Z,13.2
2023-03-17T11:59:24.550Z,13.9
2023-03-17T12:04:36.465Z,14.2
2023-03-17T12:10:21.693Z,13.6
2023-03-17T12:16:10.835Z,14
2023-03-17T12:21:34.854Z,14
2023-03-17T12:27:13.703Z,14.1
2023-03-17T12:32:56.854Z,13.8
2023-03-17T12:38:27.850Z,13.3
2023-03-17T12:43:56.316Z,13
2023-03-17T12:49:32.398Z,13.6
2023-03-17T12:55:01.005Z,13.7
2023-03-17T13:00:34.839Z,14
2023-03-17T13:06:27.995Z,13.9
2023-03-17T13:12:07.175Z,14.2
2023-03-17T13:17:34.785Z,14.1
2023-03-17T13:23:04.543Z,13.9
2023-03-17T13:28:45.419Z,13.9
2023-03-17T13:34:09.854Z,14.2
2023-03-17T13:40:09.449Z,14.1
2023-03-17T13:45:24.028Z,14.4
2023-03-17T13:51:15.616Z,14.4
2023-03-17T13:56:43.100Z,14.5
2023-03-17T14:02:22.075Z,14.6
2023-03-17T14:08:00.402Z,14.5
2023-03-17T14:13:28.585Z,14.4
2023-03-17T14:19:09.636Z,14.7
2023-03-17T14:24:30.130Z,14.7
2023-03-17T14:30:27.833Z,14.7
2023-03-17T14:35:57.994Z,15.7
2023-03-17T14:41:38.264Z,15.8
2023-03-17T14:46:55.106Z,16
2023-03-17T14:52:31.925Z,14.8
2023-03-17T14:58:31.744Z,14.7
2023-03-17T15:09:45.112Z,14.4
2023-03-17T15:14:57.062Z,14.4
2023-03-17T15:20:31.476Z,14.7
2023-03-17T15:26:22.248Z,14.7
2023-03-17T15:31:53.293Z,14.8
2023-03-17T15:37:37.477Z,14.6
2023-03-17T15:43:01.947Z,14.4
2023-03-17T15:48:31.242Z,14.4
2023-03-17T15:54:20.487Z,13.6
2023-03-17T15:59:45.001Z,13.6
2023-03-17T16:05:27.053Z,13.7
2023-03-17T16:10:50.235Z,13.8
2023-03-17T16:16:44.822Z,13.5
2023-03-17T16:22:14.991Z,12.9
2023-03-17T16:27:37.867Z,13.1
2023-03-17T16:33:05.757Z,12.6
2023-03-17T16:38:43.588Z,12.9
2023-03-17T16:44:37.092Z,12.6
2023-03-17T16:50:09.891Z,12.8
2023-03-17T16:55:41.796Z,12.8
2023-03-17T17:01:10.894Z,12.7
2023-03-17T17:06:24.846Z,12.4
2023-03-17T17:17:36.891Z,11.6
2023-03-17T17:29:05.148Z,11.5
2023-03-17T17:34:19.768Z,11.3
2023-03-17T17:45:26.016Z,9.5
2023-03-17T17:51:17.554Z,9.7
2023-03-17T17:56:42.144Z,9.7
2023-03-17T18:02:21.510Z,10.6
2023-03-17T18:07:42.707Z,10.4
2023-03-17T18:13:42.249Z,10.5
2023-03-17T18:19:06.824Z,11
2023-03-17T18:24:30.695Z,11.3
2023-03-17T18:30:00.635Z,10.3
2023-03-17T18:35:41.403Z,10.5
2023-03-17T18:41:07.092Z,10.3
2023-03-17T18:46:49.290Z,10.1
2023-03-17T18:52:21.332Z,9.8
2023-03-17T18:58:11.076Z,8.4
2023-03-17T19:03:28.859Z,8.8
2023-03-17T19:09:09.329Z,8.9
2023-03-17T19:14:48.816Z,8.8
2023-03-17T19:20:09.329Z,9
2023-03-17T19:25:49.344Z,8.9
2023-03-17T19:31:15.801Z,8.9
2023-03-17T19:37:03.474Z,8.8
2023-03-17T19:42:30.559Z,9
2023-03-17T19:47:51.196Z,9.1
2023-03-17T19:53:20.656Z,9
2023-03-17T19:59:16.924Z,8.9
2023-03-17T20:04:41.442Z,9
2023-03-17T20:10:26.108Z,8.9
2023-03-17T20:15:41.634Z,8.8
2023-03-17T20:21:30.002Z,8.9
2023-03-17T20:26:42.886Z,8.1
2023-03-17T20:32:39.348Z,8.2
2023-03-17T20:38:01.362Z,8.1
2023-03-17T20:43:28.868Z,8.1
2023-03-17T20:49:02.486Z,7.9
2023-03-17T20:54:42.832Z,7.6
2023-03-17T21:00:25.520Z,7.7
2023-03-17T21:05:48.142Z,7.7
2023-03-17T21:11:25.783Z,7.4
2023-03-17T21:16:58.209Z,7.6
2023-03-17T21:22:28.757Z,7.6
2023-03-17T21:27:55.168Z,8
2023-03-17T21:33:34.863Z,7.8
2023-03-17T21:38:57.241Z,7.7
2023-03-17T21:44:24.293Z,7.4
2023-03-17T21:50:04.695Z,7.2
2023-03-17T21:55:47.797Z,7.2
2023-03-17T22:01:12.617Z,7.2
2023-03-17T22:06:52.215Z,7.3
2023-03-17T22:12:32.691Z,7.2
2023-03-17T22:18:06.080Z,7.2
2023-03-17T22:23:20.562Z,7
2023-03-17T22:28:58.317Z,7.7
2023-03-17T22:34:39.095Z,7.7
2023-03-17T22:40:03.811Z,7.3
2023-03-17T22:45:35.612Z,7
2023-03-17T22:51:14.375Z,6.2
2023-03-17T22:56:38.441Z,6.6
2023-03-17T23:02:23.821Z,6.7
2023-03-17T23:08:01.983Z,6.6
2023-03-17T23:13:38.894Z,6.6
2023-03-17T23:18:52.522Z,6.7
2023-03-17T23:24:42.113Z,6.7
2023-03-17T23:30:14.186Z,6.6
2023-03-17T23:35:46.379Z,6.8
2023-03-17T23:41:22.880Z,6.7
2023-03-17T23:46:35.970Z,6.5
2023-03-17T23:52:35.715Z,6.4
2023-03-17T23:58:08.747Z,6.4
